sensor_id;sensor_type;location;lat;lon;timestamp;temperature;humidity
2767;DHT22;1391;46.74287300;11.63683300;2023-03-24T00:01:20;8.80;73.40
2767;DHT22;1391;46.74287300;11.63683300;2023-03-24T00:03:47;9.20;71.80
2767;DHT22;1391;46.74287300;11.63683300;2023-03-24T00:06:17;9.10;73.10
2767;DHT22;1391;46.74287300;11.63683300;2023-03-24T00:08:47;8.80;73.50
2767;DHT22;1391;46.74287300;11.63683300;2023-03-24T00:11:15;9.10;72.60
2767;DHT22;1391;46.74287300;11.63683300;2023-03-24T00:13:45;9.00;71.40
2767;DHT22;1391;46.74287300;11.63683300;2023-03-24T00:16:15;9.20;70.50
2767;DHT22;1391;46.74287300;11.63683300;2023-03-24T00:18:45;9.20;69.70
2767;DHT22;1391;46.74287300;11.63683300;2023-03-24T00:21:19;9.10;72.00
2767;DHT22;1391;46.74287300;11.63683300;2023-03-24T00:23:48;9.10;74.90
2767;DHT22;1391;46.74287300;11.63683300;2023-03-24T00:26:16;9.10;73.80
2767;DHT22;1391;46.74287300;11.63683300;2023-03-24T00:28:46;9.00;75.70
2767;DHT22;1391;46.74287300;11.63683300;2023-03-24T00:31:15;9.10;79.40
2767;DHT22;1391;46.74287300;11.63683300;2023-03-24T00:33:46;8.80;80.70
2767;DHT22;1391;46.74287300;11.63683300;2023-03-24T00:36:16;9.30;78.80
2767;DHT22;1391;46.74287300;11.63683300;2023-03-24T00:38:45;9.10;77.00
2767;DHT22;1391;46.74287300;11.63683300;2023-03-24T00:41:15;9.10;76.10
2767;DHT22;1391;46.74287300;11.63683300;2023-03-24T00:43:44;9.40;75.80
2767;DHT22;1391;46.74287300;11.63683300;2023-03-24T00:46:13;9.00;75.00
2767;DHT22;1391;46.74287300;11.63683300;2023-03-24T00:48:53;9.10;75.30
2767;DHT22;1391;46.74287300;11.63683300;2023-03-24T00:51:27;9.10;83.90
2767;DHT22;1391;46.74287300;11.63683300;2023-03-24T00:53:55;8.70;86.00
2767;DHT22;1391;46.74287300;11.63683300;2023-03-24T00:56:25;8.70;82.20
2767;DHT22;1391;46.74287300;11.63683300;2023-03-24T00:59:10;9.20;78.90
2767;DHT22;1391;46.74287300;11.63683300;2023-03-24T01:01:40;9.10;75.20
2767;DHT22;1391;46.74287300;11.63683300;2023-03-24T01:04:09;9.20;73.00
2767;DHT22;1391;46.74287300;11.63683300;2023-03-24T01:06:37;9.50;72.40
2767;DHT22;1391;46.74287300;11.63683300;2023-03-24T01:09:05;9.40;72.20
2767;DHT22;1391;46.74287300;11.63683300;2023-03-24T01:11:36;9.60;71.40
2767;DHT22;1391;46.74287300;11.63683300;2023-03-24T01:14:06;9.70;71.50
2767;DHT22;1391;46.74287300;11.63683300;2023-03-24T01:16:34;9.20;74.10
2767;DHT22;1391;46.74287300;11.63683300;2023-03-24T01:19:01;9.20;73.00
2767;DHT22;1391;46.74287300;11.63683300;2023-03-24T01:21:30;9.20;72.10
2767;DHT22;1391;46.74287300;11.63683300;2023-03-24T01:23:59;9.20;71.70
2767;DHT22;1391;46.74287300;11.63683300;2023-03-24T01:26:27;9.20;72.00
2767;DHT22;1391;46.74287300;11.63683300;2023-03-24T01:28:55;9.50;72.90
2767;DHT22;1391;46.74287300;11.63683300;2023-03-24T01:31:22;9.60;73.50
2767;DHT22;1391;46.74287300;11.63683300;2023-03-24T01:33:50;9.20;76.60
2767;DHT22;1391;46.74287300;11.63683300;2023-03-24T01:36:18;9.40;76.20
2767;DHT22;1391;46.74287300;11.63683300;2023-03-24T01:38:46;9.30;76.20
2767;DHT22;1391;46.74287300;11.63683300;2023-03-24T01:41:14;9.70;75.30
2767;DHT22;1391;46.74287300;11.63683300;2023-03-24T01:43:42;9.20;77.30
2767;DHT22;1391;46.74287300;11.63683300;2023-03-24T01:46:14;9.30;77.00
2767;DHT22;1391;46.74287300;11.63683300;2023-03-24T01:48:48;9.30;75.50
2767;DHT22;1391;46.74287300;11.63683300;2023-03-24T01:51:20;9.10;75.80
2767;DHT22;1391;46.74287300;11.63683300;2023-03-24T01:53:54;9.60;74.90
2767;DHT22;1391;46.74287300;11.63683300;2023-03-24T01:56:24;9.10;73.70
2767;DHT22;1391;46.74287300;11.63683300;2023-03-24T01:58:56;9.80;72.70
2767;DHT22;1391;46.74287300;11.63683300;2023-03-24T02:01:26;9.90;72.40
2767;DHT22;1391;46.74287300;11.63683300;2023-03-24T02:03:56;9.50;73.40
2767;DHT22;1391;46.74287300;11.63683300;2023-03-24T02:06:25;9.50;74.20
2767;DHT22;1391;46.74287300;11.63683300;2023-03-24T02:08:55;9.70;74.40
2767;DHT22;1391;46.74287300;11.63683300;2023-03-24T02:11:28;9.20;78.80
2767;DHT22;1391;46.74287300;11.63683300;2023-03-24T02:13:57;9.10;82.00
2767;DHT22;1391;46.74287300;11.63683300;2023-03-24T02:16:36;9.20;81.10
2767;DHT22;1391;46.74287300;11.63683300;2023-03-24T02:32:32;9.00;78.80
2767;DHT22;1391;46.74287300;11.63683300;2023-03-24T02:35:38;9.20;77.40
2767;DHT22;1391;46.74287300;11.63683300;2023-03-24T02:38:38;9.30;80.10
2767;DHT22;1391;46.74287300;11.63683300;2023-03-24T02:41:22;9.40;79.00
2767;DHT22;1391;46.74287300;11.63683300;2023-03-24T02:43:56;9.40;77.10
2767;DHT22;1391;46.74287300;11.63683300;2023-03-24T02:46:34;9.10;76.60
2767;DHT22;1391;46.74287300;11.63683300;2023-03-24T02:49:16;9.10;76.00
2767;DHT22;1391;46.74287300;11.63683300;2023-03-24T02:51:51;9.10;75.00
2767;DHT22;1391;46.74287300;11.63683300;2023-03-24T02:54:32;9.00;74.60
2767;DHT22;1391;46.74287300;11.63683300;2023-03-24T02:57:10;9.10;75.20
2767;DHT22;1391;46.74287300;11.63683300;2023-03-24T02:59:43;9.10;75.20
2767;DHT22;1391;46.74287300;11.63683300;2023-03-24T03:02:16;9.10;75.20
2767;DHT22;1391;46.74287300;11.63683300;2023-03-24T03:04:50;9.10;75.00
2767;DHT22;1391;46.74287300;11.63683300;2023-03-24T03:07:24;9.00;76.30
2767;DHT22;1391;46.74287300;11.63683300;2023-03-24T03:09:58;8.60;78.50
2767;DHT22;1391;46.74287300;11.63683300;2023-03-24T03:12:31;8.60;78.60
2767;DHT22;1391;46.74287300;11.63683300;2023-03-24T03:15:04;8.80;77.80
2767;DHT22;1391;46.74287300;11.63683300;2023-03-24T03:17:36;8.70;77.40
2767;DHT22;1391;46.74287300;11.63683300;2023-03-24T03:20:09;8.70;77.00
2767;DHT22;1391;46.74287300;11.63683300;2023-03-24T03:22:44;9.30;77.20
2767;DHT22;1391;46.74287300;11.63683300;2023-03-24T03:25:17;8.90;77.00
2767;DHT22;1391;46.74287300;11.63683300;2023-03-24T03:27:50;9.30;76.70
2767;DHT22;1391;46.74287300;11.63683300;2023-03-24T03:30:23;9.20;76.30
2767;DHT22;1391;46.74287300;11.63683300;2023-03-24T03:32:57;9.00;75.80
2767;DHT22;1391;46.74287300;11.63683300;2023-03-24T03:35:32;9.10;75.80
2767;DHT22;1391;46.74287300;11.63683300;2023-03-24T03:38:08;8.80;80.40
2767;DHT22;1391;46.74287300;11.63683300;2023-03-24T03:40:42;8.80;81.90
2767;DHT22;1391;46.74287300;11.63683300;2023-03-24T03:43:17;8.90;81.40
2767;DHT22;1391;46.74287300;11.63683300;2023-03-24T03:45:45;9.20;81.50
2767;DHT22;1391;46.74287300;11.63683300;2023-03-24T03:48:12;9.00;80.50
2767;DHT22;1391;46.74287300;11.63683300;2023-03-24T03:50:41;8.70;80.50
2767;DHT22;1391;46.74287300;11.63683300;2023-03-24T03:53:09;8.70;80.60
2767;DHT22;1391;46.74287300;11.63683300;2023-03-24T03:55:37;8.70;81.30
2767;DHT22;1391;46.74287300;11.63683300;2023-03-24T03:58:06;8.80;80.10
2767;DHT22;1391;46.74287300;11.63683300;2023-03-24T04:00:36;8.60;79.30
2767;DHT22;1391;46.74287300;11.63683300;2023-03-24T04:03:21;8.80;79.10
2767;DHT22;1391;46.74287300;11.63683300;2023-03-24T04:06:02;8.60;78.70
2767;DHT22;1391;46.74287300;11.63683300;2023-03-24T04:08:44;8.90;78.00
2767;DHT22;1391;46.74287300;11.63683300;2023-03-24T04:17:30;8.80;79.00
2767;DHT22;1391;46.74287300;11.63683300;2023-03-24T04:20:10;8.60;79.50
2767;DHT22;1391;46.74287300;11.63683300;2023-03-24T04:22:55;8.80;79.30
2767;DHT22;1391;46.74287300;11.63683300;2023-03-24T04:25:32;8.60;80.10
2767;DHT22;1391;46.74287300;11.63683300;2023-03-24T04:28:12;8.30;80.80
2767;DHT22;1391;46.74287300;11.63683300;2023-03-24T04:30:46;8.20;80.90
2767;DHT22;1391;46.74287300;11.63683300;2023-03-24T04:33:19;8.20;82.40
2767;DHT22;1391;46.74287300;11.63683300;2023-03-24T04:35:59;8.30;82.50
2767;DHT22;1391;46.74287300;11.63683300;2023-03-24T04:38:31;8.40;81.70
2767;DHT22;1391;46.74287300;11.63683300;2023-03-24T04:41:04;8.30;81.20
2767;DHT22;1391;46.74287300;11.63683300;2023-03-24T04:43:33;8.40;82.00
2767;DHT22;1391;46.74287300;11.63683300;2023-03-24T04:46:02;8.40;81.40
2767;DHT22;1391;46.74287300;11.63683300;2023-03-24T04:48:32;8.40;81.30
2767;DHT22;1391;46.74287300;11.63683300;2023-03-24T04:51:01;8.40;81.10
2767;DHT22;1391;46.74287300;11.63683300;2023-03-24T04:53:29;8.40;80.90
2767;DHT22;1391;46.74287300;11.63683300;2023-03-24T04:56:03;8.30;80.30
2767;DHT22;1391;46.74287300;11.63683300;2023-03-24T04:58:35;8.50;80.90
2767;DHT22;1391;46.74287300;11.63683300;2023-03-24T05:01:02;8.30;82.20
2767;DHT22;1391;46.74287300;11.63683300;2023-03-24T05:03:32;8.30;84.10
2767;DHT22;1391;46.74287300;11.63683300;2023-03-24T05:06:03;8.10;84.20
2767;DHT22;1391;46.74287300;11.63683300;2023-03-24T05:08:31;8.30;84.50
2767;DHT22;1391;46.74287300;11.63683300;2023-03-24T05:10:59;8.30;84.60
2767;DHT22;1391;46.74287300;11.63683300;2023-03-24T05:13:26;8.30;84.60
2767;DHT22;1391;46.74287300;11.63683300;2023-03-24T05:15:54;8.00;84.70
2767;DHT22;1391;46.74287300;11.63683300;2023-03-24T05:18:21;7.70;84.70
2767;DHT22;1391;46.74287300;11.63683300;2023-03-24T05:20:50;7.80;85.70
2767;DHT22;1391;46.74287300;11.63683300;2023-03-24T05:23:18;7.90;86.20
2767;DHT22;1391;46.74287300;11.63683300;2023-03-24T05:25:46;8.00;85.90
2767;DHT22;1391;46.74287300;11.63683300;2023-03-24T05:28:13;7.90;85.10
2767;DHT22;1391;46.74287300;11.63683300;2023-03-24T05:30:41;8.00;85.10
2767;DHT22;1391;46.74287300;11.63683300;2023-03-24T05:33:08;7.70;84.60
2767;DHT22;1391;46.74287300;11.63683300;2023-03-24T05:35:35;8.30;84.90
2767;DHT22;1391;46.74287300;11.63683300;2023-03-24T05:38:04;8.00;85.30
2767;DHT22;1391;46.74287300;11.63683300;2023-03-24T05:40:32;7.80;86.20
2767;DHT22;1391;46.74287300;11.63683300;2023-03-24T05:42:59;7.90;86.60
2767;DHT22;1391;46.74287300;11.63683300;2023-03-24T05:45:26;8.00;86.60
2767;DHT22;1391;46.74287300;11.63683300;2023-03-24T05:47:55;8.10;86.50
2767;DHT22;1391;46.74287300;11.63683300;2023-03-24T05:50:22;8.30;86.90
2767;DHT22;1391;46.74287300;11.63683300;2023-03-24T05:52:50;7.90;86.90
2767;DHT22;1391;46.74287300;11.63683300;2023-03-24T05:55:20;7.80;88.70
2767;DHT22;1391;46.74287300;11.63683300;2023-03-24T05:57:47;8.30;88.20
2767;DHT22;1391;46.74287300;11.63683300;2023-03-24T06:00:16;8.30;87.50
2767;DHT22;1391;46.74287300;11.63683300;2023-03-24T06:02:45;8.10;88.10
2767;DHT22;1391;46.74287300;11.63683300;2023-03-24T06:05:12;8.30;90.50
2767;DHT22;1391;46.74287300;11.63683300;2023-03-24T06:07:40;8.40;90.30
2767;DHT22;1391;46.74287300;11.63683300;2023-03-24T06:10:09;8.40;87.90
2767;DHT22;1391;46.74287300;11.63683300;2023-03-24T06:12:37;8.40;86.40
2767;DHT22;1391;46.74287300;11.63683300;2023-03-24T06:15:06;8.30;86.10
2767;DHT22;1391;46.74287300;11.63683300;2023-03-24T06:17:35;8.70;88.50
2767;DHT22;1391;46.74287300;11.63683300;2023-03-24T06:20:03;8.90;86.80
2767;DHT22;1391;46.74287300;11.63683300;2023-03-24T06:22:40;8.70;84.60
2767;DHT22;1391;46.74287300;11.63683300;2023-03-24T06:25:10;9.10;82.30
2767;DHT22;1391;46.74287300;11.63683300;2023-03-24T06:27:43;9.10;82.60
2767;DHT22;1391;46.74287300;11.63683300;2023-03-24T06:30:16;9.20;81.00
2767;DHT22;1391;46.74287300;11.63683300;2023-03-24T06:32:45;9.20;80.60
2767;DHT22;1391;46.74287300;11.63683300;2023-03-24T06:35:14;9.20;81.40
2767;DHT22;1391;46.74287300;11.63683300;2023-03-24T06:37:42;9.10;79.80
2767;DHT22;1391;46.74287300;11.63683300;2023-03-24T06:40:11;9.70;78.80
2767;DHT22;1391;46.74287300;11.63683300;2023-03-24T06:42:39;9.60;78.20
2767;DHT22;1391;46.74287300;11.63683300;2023-03-24T06:45:09;9.70;76.80
2767;DHT22;1391;46.74287300;11.63683300;2023-03-24T06:47:37;9.60;76.90
2767;DHT22;1391;46.74287300;11.63683300;2023-03-24T06:50:05;10.00;75.00
2767;DHT22;1391;46.74287300;11.63683300;2023-03-24T06:52:34;9.60;76.10
2767;DHT22;1391;46.74287300;11.63683300;2023-03-24T06:55:03;9.60;76.60
2767;DHT22;1391;46.74287300;11.63683300;2023-03-24T06:57:30;9.90;76.90
2767;DHT22;1391;46.74287300;11.63683300;2023-03-24T06:59:59;10.00;75.60
2767;DHT22;1391;46.74287300;11.63683300;2023-03-24T07:02:28;9.90;75.90
2767;DHT22;1391;46.74287300;11.63683300;2023-03-24T07:05:00;10.00;74.50
2767;DHT22;1391;46.74287300;11.63683300;2023-03-24T07:07:30;9.90;75.20
2767;DHT22;1391;46.74287300;11.63683300;2023-03-24T07:09:58;10.00;75.30
2767;DHT22;1391;46.74287300;11.63683300;2023-03-24T07:12:26;10.30;74.10
2767;DHT22;1391;46.74287300;11.63683300;2023-03-24T07:14:54;10.20;73.90
2767;DHT22;1391;46.74287300;11.63683300;2023-03-24T07:17:23;10.60;74.20
2767;DHT22;1391;46.74287300;11.63683300;2023-03-24T07:19:50;10.10;74.00
2767;DHT22;1391;46.74287300;11.63683300;2023-03-24T07:22:17;10.00;71.60
2767;DHT22;1391;46.74287300;11.63683300;2023-03-24T07:24:45;10.10;71.10
2767;DHT22;1391;46.74287300;11.63683300;2023-03-24T07:27:12;10.60;73.20
2767;DHT22;1391;46.74287300;11.63683300;2023-03-24T07:29:39;10.40;71.90
2767;DHT22;1391;46.74287300;11.63683300;2023-03-24T07:32:07;10.70;71.30
2767;DHT22;1391;46.74287300;11.63683300;2023-03-24T07:34:35;10.70;71.00
2767;DHT22;1391;46.74287300;11.63683300;2023-03-24T07:37:04;10.60;70.30
2767;DHT22;1391;46.74287300;11.63683300;2023-03-24T07:39:32;10.40;69.50
2767;DHT22;1391;46.74287300;11.63683300;2023-03-24T07:41:59;10.40;67.80
2767;DHT22;1391;46.74287300;11.63683300;2023-03-24T07:44:28;10.70;67.50
2767;DHT22;1391;46.74287300;11.63683300;2023-03-24T07:46:56;10.50;66.40
2767;DHT22;1391;46.74287300;11.63683300;2023-03-24T07:49:23;10.60;65.90
2767;DHT22;1391;46.74287300;11.63683300;2023-03-24T07:51:52;10.50;64.90
2767;DHT22;1391;46.74287300;11.63683300;2023-03-24T07:54:19;11.10;64.60
2767;DHT22;1391;46.74287300;11.63683300;2023-03-24T07:56:46;11.20;64.40
2767;DHT22;1391;46.74287300;11.63683300;2023-03-24T07:59:14;11.20;65.50
2767;DHT22;1391;46.74287300;11.63683300;2023-03-24T08:01:42;10.90;64.20
2767;DHT22;1391;46.74287300;11.63683300;2023-03-24T08:04:11;11.50;63.30
2767;DHT22;1391;46.74287300;11.63683300;2023-03-24T08:06:41;11.70;62.40
2767;DHT22;1391;46.74287300;11.63683300;2023-03-24T08:09:09;11.70;62.40
2767;DHT22;1391;46.74287300;11.63683300;2023-03-24T08:11:37;12.10;61.30
2767;DHT22;1391;46.74287300;11.63683300;2023-03-24T08:14:05;12.30;58.50
2767;DHT22;1391;46.74287300;11.63683300;2023-03-24T08:16:32;11.50;60.90
2767;DHT22;1391;46.74287300;11.63683300;2023-03-24T08:18:59;11.50;60.50
2767;DHT22;1391;46.74287300;11.63683300;2023-03-24T08:21:27;11.80;61.00
2767;DHT22;1391;46.74287300;11.63683300;2023-03-24T08:23:54;12.10;61.30
2767;DHT22;1391;46.74287300;11.63683300;2023-03-24T08:26:23;11.80;61.10
2767;DHT22;1391;46.74287300;11.63683300;2023-03-24T08:28:52;12.10;60.50
2767;DHT22;1391;46.74287300;11.63683300;2023-03-24T08:31:19;12.10;60.00
2767;DHT22;1391;46.74287300;11.63683300;2023-03-24T08:33:47;12.10;58.70
2767;DHT22;1391;46.74287300;11.63683300;2023-03-24T08:36:14;12.20;58.20
2767;DHT22;1391;46.74287300;11.63683300;2023-03-24T08:38:42;12.00;58.10
2767;DHT22;1391;46.74287300;11.63683300;2023-03-24T08:41:09;12.10;56.80
2767;DHT22;1391;46.74287300;11.63683300;2023-03-24T08:43:38;12.20;57.30
2767;DHT22;1391;46.74287300;11.63683300;2023-03-24T08:46:07;12.10;56.90
2767;DHT22;1391;46.74287300;11.63683300;2023-03-24T08:48:35;12.20;56.20
2767;DHT22;1391;46.74287300;11.63683300;2023-03-24T08:51:10;12.20;54.40
2767;DHT22;1391;46.74287300;11.63683300;2023-03-24T08:53:38;11.90;55.20
2767;DHT22;1391;46.74287300;11.63683300;2023-03-24T08:56:06;12.20;55.50
2767;DHT22;1391;46.74287300;11.63683300;2023-03-24T08:58:34;12.30;54.80
2767;DHT22;1391;46.74287300;11.63683300;2023-03-24T09:01:04;12.50;54.80
2767;DHT22;1391;46.74287300;11.63683300;2023-03-24T09:03:32;12.50;53.00
2767;DHT22;1391;46.74287300;11.63683300;2023-03-24T09:06:04;12.60;52.90
2767;DHT22;1391;46.74287300;11.63683300;2023-03-24T09:08:32;12.50;52.90
2767;DHT22;1391;46.74287300;11.63683300;2023-03-24T09:11:00;12.90;51.60
2767;DHT22;1391;46.74287300;11.63683300;2023-03-24T09:13:28;12.80;50.10
2767;DHT22;1391;46.74287300;11.63683300;2023-03-24T09:15:59;12.80;49.10
2767;DHT22;1391;46.74287300;11.63683300;2023-03-24T09:18:28;12.90;48.10
2767;DHT22;1391;46.74287300;11.63683300;2023-03-24T09:20:56;12.50;47.60
2767;DHT22;1391;46.74287300;11.63683300;2023-03-24T09:23:23;12.60;47.60
2767;DHT22;1391;46.74287300;11.63683300;2023-03-24T09:25:54;12.60;46.90
2767;DHT22;1391;46.74287300;11.63683300;2023-03-24T09:28:21;12.70;47.70
2767;DHT22;1391;46.74287300;11.63683300;2023-03-24T09:30:49;13.10;50.10
2767;DHT22;1391;46.74287300;11.63683300;2023-03-24T09:33:17;13.00;49.00
2767;DHT22;1391;46.74287300;11.63683300;2023-03-24T09:35:52;13.10;46.20
2767;DHT22;1391;46.74287300;11.63683300;2023-03-24T09:38:20;13.10;52.90
2767;DHT22;1391;46.74287300;11.63683300;2023-03-24T09:40:50;13.40;50.90
2767;DHT22;1391;46.74287300;11.63683300;2023-03-24T09:43:26;13.10;51.00
2767;DHT22;1391;46.74287300;11.63683300;2023-03-24T09:46:00;13.10;50.80
2767;DHT22;1391;46.74287300;11.63683300;2023-03-24T09:48:34;13.30;54.30
2767;DHT22;1391;46.74287300;11.63683300;2023-03-24T09:51:07;13.10;54.30
2767;DHT22;1391;46.74287300;11.63683300;2023-03-24T09:53:41;13.20;52.40
2767;DHT22;1391;46.74287300;11.63683300;2023-03-24T09:56:15;13.10;49.00
2767;DHT22;1391;46.74287300;11.63683300;2023-03-24T09:58:45;13.10;48.70
2767;DHT22;1391;46.74287300;11.63683300;2023-03-24T10:01:15;13.00;49.60
2767;DHT22;1391;46.74287300;11.63683300;2023-03-24T10:03:44;13.20;47.20
2767;DHT22;1391;46.74287300;11.63683300;2023-03-24T10:06:28;13.20;47.20
2767;DHT22;1391;46.74287300;11.63683300;2023-03-24T10:09:07;13.10;47.30
2767;DHT22;1391;46.74287300;11.63683300;2023-03-24T10:11:44;13.10;46.40
2767;DHT22;1391;46.74287300;11.63683300;2023-03-24T10:14:23;13.00;46.30
2767;DHT22;1391;46.74287300;11.63683300;2023-03-24T10:17:00;13.10;46.70
2767;DHT22;1391;46.74287300;11.63683300;2023-03-24T10:19:39;13.00;46.90
2767;DHT22;1391;46.74287300;11.63683300;2023-03-24T10:22:17;13.30;49.70
2767;DHT22;1391;46.74287300;11.63683300;2023-03-24T10:24:53;13.30;48.00
2767;DHT22;1391;46.74287300;11.63683300;2023-03-24T10:27:26;13.20;46.60
2767;DHT22;1391;46.74287300;11.63683300;2023-03-24T10:30:00;13.10;46.30
2767;DHT22;1391;46.74287300;11.63683300;2023-03-24T10:32:33;13.10;47.90
2767;DHT22;1391;46.74287300;11.63683300;2023-03-24T10:35:02;13.00;48.00
2767;DHT22;1391;46.74287300;11.63683300;2023-03-24T10:37:36;13.40;48.10
2767;DHT22;1391;46.74287300;11.63683300;2023-03-24T10:40:14;13.60;46.60
2767;DHT22;1391;46.74287300;11.63683300;2023-03-24T10:42:46;13.50;46.00
2767;DHT22;1391;46.74287300;11.63683300;2023-03-24T10:45:23;13.50;47.00
2767;DHT22;1391;46.74287300;11.63683300;2023-03-24T10:47:55;13.60;51.30
2767;DHT22;1391;46.74287300;11.63683300;2023-03-24T10:50:24;13.80;46.40
2767;DHT22;1391;46.74287300;11.63683300;2023-03-24T16:38:10;14.40;50.30
2767;DHT22;1391;46.74287300;11.63683300;2023-03-24T16:56:34;13.70;56.50
2767;DHT22;1391;46.74287300;11.63683300;2023-03-24T16:59:02;13.70;53.30
2767;DHT22;1391;46.74287300;11.63683300;2023-03-24T17:01:36;14.50;51.20
2767;DHT22;1391;46.74287300;11.63683300;2023-03-24T17:04:15;14.50;50.10
2767;DHT22;1391;46.74287300;11.63683300;2023-03-24T17:06:54;14.30;47.40
2767;DHT22;1391;46.74287300;11.63683300;2023-03-24T17:09:31;14.60;47.90
2767;DHT22;1391;46.74287300;11.63683300;2023-03-24T17:12:04;14.60;46.10
2767;DHT22;1391;46.74287300;11.63683300;2023-03-24T17:14:36;14.50;45.70
2767;DHT22;1391;46.74287300;11.63683300;2023-03-24T17:17:15;14.50;49.50
2767;DHT22;1391;46.74287300;11.63683300;2023-03-24T17:19:47;14.50;50.80
2767;DHT22;1391;46.74287300;11.63683300;2023-03-24T17:22:15;14.30;48.90
2767;DHT22;1391;46.74287300;11.63683300;2023-03-24T17:24:51;14.50;49.60
2767;DHT22;1391;46.74287300;11.63683300;2023-03-24T17:27:30;14.20;49.60
2767;DHT22;1391;46.74287300;11.63683300;2023-03-24T17:30:17;14.50;48.90
2767;DHT22;1391;46.74287300;11.63683300;2023-03-24T17:32:56;14.20;50.90
2767;DHT22;1391;46.74287300;11.63683300;2023-03-24T17:35:29;14.00;52.00
2767;DHT22;1391;46.74287300;11.63683300;2023-03-24T17:37:57;13.60;52.60
2767;DHT22;1391;46.74287300;11.63683300;2023-03-24T17:40:24;13.60;55.10
2767;DHT22;1391;46.74287300;11.63683300;2023-03-24T17:42:53;13.80;52.60
2767;DHT22;1391;46.74287300;11.63683300;2023-03-24T17:45:21;13.80;52.80
2767;DHT22;1391;46.74287300;11.63683300;2023-03-24T17:47:49;13.60;52.40
2767;DHT22;1391;46.74287300;11.63683300;2023-03-24T17:50:18;14.00;53.70
2767;DHT22;1391;46.74287300;11.63683300;2023-03-24T17:52:47;13.60;53.80
2767;DHT22;1391;46.74287300;11.63683300;2023-03-24T17:55:16;13.60;55.20
2767;DHT22;1391;46.74287300;11.63683300;2023-03-24T17:57:53;13.20;54.00
2767;DHT22;1391;46.74287300;11.63683300;2023-03-24T18:00:22;13.20;54.70
2767;DHT22;1391;46.74287300;11.63683300;2023-03-24T18:02:51;13.20;52.70
2767;DHT22;1391;46.74287300;11.63683300;2023-03-24T18:05:32;13.50;54.60
2767;DHT22;1391;46.74287300;11.63683300;2023-03-24T18:08:04;13.40;54.60
2767;DHT22;1391;46.74287300;11.63683300;2023-03-24T18:10:38;13.20;53.90
2767;DHT22;1391;46.74287300;11.63683300;2023-03-24T18:13:15;13.20;53.90
2767;DHT22;1391;46.74287300;11.63683300;2023-03-24T18:15:54;13.20;54.00
2767;DHT22;1391;46.74287300;11.63683300;2023-03-24T18:18:28;13.30;54.80
2767;DHT22;1391;46.74287300;11.63683300;2023-03-24T18:21:13;13.10;54.60
2767;DHT22;1391;46.74287300;11.63683300;2023-03-24T18:23:46;13.20;55.20
2767;DHT22;1391;46.74287300;11.63683300;2023-03-24T18:26:23;13.20;55.40
2767;DHT22;1391;46.74287300;11.63683300;2023-03-24T18:29:00;13.40;55.70
2767;DHT22;1391;46.74287300;11.63683300;2023-03-24T18:31:41;13.10;57.00
2767;DHT22;1391;46.74287300;11.63683300;2023-03-24T18:34:16;13.30;57.00
2767;DHT22;1391;46.74287300;11.63683300;2023-03-24T18:36:54;13.10;56.20
2767;DHT22;1391;46.74287300;11.63683300;2023-03-24T19:41:03;12.60;68.10
2767;DHT22;1391;46.74287300;11.63683300;2023-03-24T19:43:32;12.50;67.70
2767;DHT22;1391;46.74287300;11.63683300;2023-03-24T19:46:00;12.50;67.30
2767;DHT22;1391;46.74287300;11.63683300;2023-03-24T19:48:28;12.60;68.70
2767;DHT22;1391;46.74287300;11.63683300;2023-03-24T19:50:55;12.50;70.30
2767;DHT22;1391;46.74287300;11.63683300;2023-03-24T19:53:23;12.20;72.00
2767;DHT22;1391;46.74287300;11.63683300;2023-03-24T19:55:54;12.30;74.90
2767;DHT22;1391;46.74287300;11.63683300;2023-03-24T19:58:24;12.20;79.20
2767;DHT22;1391;46.74287300;11.63683300;2023-03-24T20:00:51;12.10;81.30
2767;DHT22;1391;46.74287300;11.63683300;2023-03-24T20:03:19;12.00;87.80
2767;DHT22;1391;46.74287300;11.63683300;2023-03-24T20:05:47;11.80;92.40
2767;DHT22;1391;46.74287300;11.63683300;2023-03-24T20:08:14;11.30;81.90
2767;DHT22;1391;46.74287300;11.63683300;2023-03-24T20:10:43;11.80;90.40
2767;DHT22;1391;46.74287300;11.63683300;2023-03-24T20:13:10;11.70;93.30
2767;DHT22;1391;46.74287300;11.63683300;2023-03-24T20:15:39;11.70;97.10
2767;DHT22;1391;46.74287300;11.63683300;2023-03-24T20:18:06;11.30;94.70
2767;DHT22;1391;46.74287300;11.63683300;2023-03-24T20:20:35;11.30;92.10
2767;DHT22;1391;46.74287300;11.63683300;2023-03-24T20:23:02;10.80;92.40
2767;DHT22;1391;46.74287300;11.63683300;2023-03-24T20:25:29;10.80;94.60
2767;DHT22;1391;46.74287300;11.63683300;2023-03-24T20:27:56;10.80;94.30
2767;DHT22;1391;46.74287300;11.63683300;2023-03-24T20:30:24;10.90;94.00
2767;DHT22;1391;46.74287300;11.63683300;2023-03-24T20:32:55;10.70;95.90
2767;DHT22;1391;46.74287300;11.63683300;2023-03-24T20:35:24;10.80;97.20
2767;DHT22;1391;46.74287300;11.63683300;2023-03-24T20:37:52;10.60;98.20
2767;DHT22;1391;46.74287300;11.63683300;2023-03-24T20:40:20;10.30;97.00
2767;DHT22;1391;46.74287300;11.63683300;2023-03-24T20:42:49;10.30;98.60
2767;DHT22;1391;46.74287300;11.63683300;2023-03-24T20:45:17;10.30;99.10
2767;DHT22;1391;46.74287300;11.63683300;2023-03-24T20:47:44;10.10;99.90
2767;DHT22;1391;46.74287300;11.63683300;2023-03-24T20:50:13;10.00;99.90
2767;DHT22;1391;46.74287300;11.63683300;2023-03-24T20:52:40;10.20;99.90
2767;DHT22;1391;46.74287300;11.63683300;2023-03-24T20:55:09;10.30;99.90
2767;DHT22;1391;46.74287300;11.63683300;2023-03-24T20:57:37;10.10;99.90
2767;DHT22;1391;46.74287300;11.63683300;2023-03-24T21:00:08;10.00;99.90
2767;DHT22;1391;46.74287300;11.63683300;2023-03-24T21:02:39;10.20;99.90
2767;DHT22;1391;46.74287300;11.63683300;2023-03-24T21:05:07;10.30;99.90
2767;DHT22;1391;46.74287300;11.63683300;2023-03-24T21:07:37;10.00;99.90
2767;DHT22;1391;46.74287300;11.63683300;2023-03-24T21:10:08;10.30;99.90
2767;DHT22;1391;46.74287300;11.63683300;2023-03-24T21:12:36;10.10;99.90
2767;DHT22;1391;46.74287300;11.63683300;2023-03-24T21:15:04;9.70;99.90
2767;DHT22;1391;46.74287300;11.63683300;2023-03-24T21:17:33;10.20;99.90
2767;DHT22;1391;46.74287300;11.63683300;2023-03-24T21:20:01;9.60;99.90
2767;DHT22;1391;46.74287300;11.63683300;2023-03-24T21:22:36;9.60;99.90